My Meet Scores
Olivia Chovanec, Aspire Gymnastics Academy - MyMeetScores.com
Top100 | Top Teams | Upcoming Meets | Completed Meets | Latest | Add Scores | Help| Support | Bookmark and Share

Olivia Chovanec, Aspire Gymnastics Academy
Personal Bests
LevelVault BarsBeamFloorAA
39.7258.750 9.2009.20036.150
48.8508.500 9.2508.90035.250
59.2258.650 9.2259.12535.425
79.5008.825 9.4009.30036.700
Meet Scores
Date Meet Team Session Level Division Vault Bars Beam Floor AA
2018-03-23 Illinois Level 7 & 8 State Competition Aspire Gymnastics Academy 10 7 Ch C 9.350 13 8.550 22 9.400 13T 8.800 23 36.100 20
2018-03-09 Lucky Invitational Aspire Gymnastics Academy A06 7 Jr A 9.500 13T 8.825 24 9.075 20T 9.300 20 36.700 22
2018-02-16 Big Classic Aspire Gymnastics Academy 2A 7 Junior A 8.650 15 8.325 15 9.000 8 9.200 9T 35.175 14
2018-01-26 2018 UGA Classic Aspire Gymnastics Academy A2 7 Jr A 9.150 14T 7.950 19 9.250 4 9.100 14T 35.450 16
2018-01-19 2018 Bravo Classic Aspire Gymnastics Academy 4A 7 Child 9.275 13T 8.100 21 9.300 7T 9.050 19 35.725 19
2018-01-04 Atlanta Crown Invitational Aspire Gymnastics Academy A04 7 A 9.100 8T 7.700 10 9.025 6 8.375 11 34.200 10
2017-12-15 2017 Aspire Classic Aspire Gymnastics Academy 4 7 Younger 9.500 5T 7.900 18 9.025 7 8.925 14 35.350 12
2017-11-16 Paul Hamm Thanksgiving Classic - Women Aspire Gymnastics Academy 3 7 Younger 9.275 41T 7.750 61T 9.250 19 8.650 67 34.925 52T
2017-03-30 2017 Illinois Level 3 & 5 State Aspire Gymnastics Academy All 5 Jr C 9.025 19 7.750 24 8.950 15 9.000 19T 34.725 24
2017-02-24 Kinetic Classic Aspire Gymnastics Academy 6 5 All Ages 8.850 21T 8.100 29 8.850 22 9.125 17 34.925 25T
2017-02-18 2017 Great Western Invitational Women's Aspire Gymnastics Academy A10 5 L5 (910) 8.600 10 8.375 12 8.650 10 8.350 12 33.975 12
2017-01-27 2017 UGA Invitational Aspire Gymnastics Academy B4 5 Child 8.875 6 8.650 10 9.200 4 8.700 7T 35.425 6
2017-01-20 2017 Bravo Classic Aspire Gymnastics Academy 04B 5 10yrs 9.225 15T 8.000 21T 8.250 21 8.750 17 34.225 20
2016-12-16 2016 Aspire Classic Aspire Gymnastics Academy 5 5 Younger 8.850 11 8.450 16T 9.200 7T 8.725 11 35.225 12
2016-12-09 St. Nick Invite Aspire Gymnastics Academy 1 5 JrA 8.550 15T 7.650 19 9.225 2 8.800 12 34.225 11
2016-11-19 Paul Hamm Thanksgiving Classic - 2016 Girls Aspire Gymnastics Academy 1 5 7-10 yrs 8.850 6 8.200 9 9.125 3T 8.775 5T 34.950 5
2016-03-10 2016 Illinois Level 4 State Meet Aspire Gymnastics Academy All 4 Child-F 8.850 16 8.500 18 9.000 21 8.150 27 34.500 23
2016-02-13 Western Invite Aspire Gymnastics Academy 5 4 Filly 8.700 6 8.400 16T 9.250 4 8.900 13T 35.250 10
2016-01-15 2016 Bravo Classic Aspire Gymnastics Academy 14A 4 9yrs 8.550 10T 8.050 20 9.075 11 8.700 17T 34.375 15
2015-12-11 St. Nick Invite Aspire Gymnastics Academy 2B 4 Child 8.625 3T 8.100 15 9.000 7 8.600 5 34.325 6T
2015-03-12 2015 Illinois Level 3 State Championship Aspire Gymnastics Academy All 3 Youth-B 9.425 6 8.350 27 9.200 8 8.975 16 35.950 14
2015-02-14 2015 Great Western Invitational Aspire Gymnastics Academy 4 3 Filly 9.300 4 8.500 9 9.150 1 9.200 1 36.150 4
2014-03-07 Illinois Level 3 State Meet Aspire Gymnastics Academy 4 3 Child B 9.725 2 8.750 24 8.125 26 9.100 18 35.700 19
2014-01-24 2014 UGA Super Invitational Aspire Gymnastics Academy 3B 3 All Ages 9.200 39 8.575 41 9.000 19T 8.600 41 35.375 35
2013-12-20 2013 Aspire Classic Aspire Gymnastics Academy 7 3 6-7yrs 9.550 1 8.550 15T 8.800 10 9.150 5T 36.050 7

www.lazysuits.com